M I D A S
Marine Information and Data Acquisition System
Tripno 1698 of the Zeeleeuw from 2009-05-25 11:32:49 to 2009-05-25 13:15:00
Back to CruiseResearch ActivitiesStationsMapUnderway DataData graphs

EquipmentUnitsComment
TimeDGPSUTC
LatitudeDGPSDM.mWGS84
LongitudeDGPSDM.mWGS84
HeadingGyrodeg 
SOGDGPSknotsSpeed over ground
COGDGPSdegCourse over ground
DepthEcho soundermeters200 kHz
Missing or incorrect values are displayed as -999
Navigation data collected by the RV Zeeleeuw from 2009-05-25 07:24:38 to 2009-05-25 13:27:20
                                                                                    Next 1000 lines
Time Latitude Longitude Heading SOG COG Depth
2009-05-25 07:24:48 51°13.663 2°55.955 114.1 0.8 292 -999
2009-05-25 07:24:53 51°13.664 2°55.953 114.1 1 294 -999
2009-05-25 07:24:58 51°13.664 2°55.951 114 1.1 292 -999
2009-05-25 07:25:03 51°13.665 2°55.948 114 1.3 293 -999
2009-05-25 07:25:08 51°13.666 2°55.945 114.2 1.4 293 -999
2009-05-25 07:25:13 51°13.667 2°55.942 114.6 1.5 295 -999
2009-05-25 07:25:18 51°13.667 2°55.939 115 1.6 296 -999
2009-05-25 07:25:23 51°13.668 2°55.936 115.3 1.7 296 -999
2009-05-25 07:25:28 51°13.669 2°55.932 115.5 1.7 296 -999
2009-05-25 07:25:33 51°13.671 2°55.928 115.5 1.9 297 -999
2009-05-25 07:25:38 51°13.672 2°55.924 115.7 2 297 -999
2009-05-25 07:25:43 51°13.673 2°55.92 115.9 2.1 297 -999
2009-05-25 07:25:48 51°13.674 2°55.916 116.2 2.2 297 -999
2009-05-25 07:25:53 51°13.676 2°55.912 116.5 2.3 299 -999
2009-05-25 07:25:58 51°13.677 2°55.907 117.1 2.4 298 -999
2009-05-25 07:26:03 51°13.679 2°55.902 117.6 2.5 301 -999
2009-05-25 07:26:08 51°13.681 2°55.898 118.2 2.5 301 -999
2009-05-25 07:26:13 51°13.683 2°55.893 118.9 2.6 302 -999
2009-05-25 07:26:18 51°13.685 2°55.888 119.4 2.6 302 -999
2009-05-25 07:26:23 51°13.686 2°55.883 119.5 2.6 301 -999
2009-05-25 07:26:28 51°13.688 2°55.878 118.9 2.6 299 -999
2009-05-25 07:26:33 51°13.69 2°55.873 117.4 2.6 298 -999
2009-05-25 07:26:38 51°13.692 2°55.868 115.6 2.7 295 -999
2009-05-25 07:26:43 51°13.693 2°55.862 113.6 2.7 293 -999
2009-05-25 07:26:48 51°13.694 2°55.857 111.3 2.8 290 -999
2009-05-25 07:26:53 51°13.696 2°55.851 109 2.8 288 -999
2009-05-25 07:26:58 51°13.697 2°55.845 107.1 2.8 285 -999
2009-05-25 07:27:03 51°13.698 2°55.839 105.8 2.8 284 -999
2009-05-25 07:27:08 51°13.698 2°55.833 104.4 2.8 282 -999
2009-05-25 07:27:13 51°13.699 2°55.826 103.1 2.8 280 -999
2009-05-25 07:27:18 51°13.7 2°55.82 101.5 2.8 279 -999
2009-05-25 07:27:23 51°13.7 2°55.814 100.3 2.8 279 -999
2009-05-25 07:27:28 51°13.701 2°55.808 99.3 2.8 277 -999
2009-05-25 07:27:33 51°13.701 2°55.802 98.4 2.8 278 -999
2009-05-25 07:27:38 51°13.702 2°55.796 97.4 2.8 276 -999
2009-05-25 07:27:43 51°13.702 2°55.79 96.7 2.7 276 -999
2009-05-25 07:27:48 51°13.703 2°55.784 96 2.7 275 -999
2009-05-25 07:27:53 51°13.703 2°55.778 95.5 2.6 276 -999
2009-05-25 07:27:58 51°13.703 2°55.772 94.8 2.5 275 -999
2009-05-25 07:28:03 51°13.704 2°55.767 94.2 2.4 275 -999
2009-05-25 07:28:08 51°13.704 2°55.762 93.7 2.3 275 11.4
2009-05-25 07:28:12 51°13.704 2°55.758 93.5 2.3 275 -999
2009-05-25 07:28:18 51°13.705 2°55.752 93 2.2 274 11.5
2009-05-25 07:28:23 51°13.705 2°55.748 92.9 2 274 -999
2009-05-25 07:28:27 51°13.705 2°55.745 92.7 1.6 275 11.1
2009-05-25 07:28:32 51°13.705 2°55.742 92.1 1.2 277 10.8
2009-05-25 07:28:37 51°13.705 2°55.74 90.8 0.7 279 10.8
2009-05-25 07:28:42 51°13.706 2°55.739 88.6 0.3 310 10.9
2009-05-25 07:28:47 51°13.706 2°55.74 85 0.3 27 10.9
2009-05-25 07:28:52 51°13.706 2°55.74 80.7 0.5 43 11
2009-05-25 07:28:56 51°13.707 2°55.741 75.8 0.8 51 11.2
2009-05-25 07:29:01 51°13.708 2°55.743 70.4 1 51 11.3
2009-05-25 07:29:07 51°13.709 2°55.745 65 1.1 51 11.4
2009-05-25 07:29:11 51°13.71 2°55.746 59.6 1.1 43 11.4
2009-05-25 07:29:16 51°13.711 2°55.748 54.5 1 43 11.4
2009-05-25 07:29:20 51°13.712 2°55.749 50.9 0.9 39 11.4
2009-05-25 07:29:26 51°13.713 2°55.75 48.1 0.6 37 11.4
2009-05-25 07:29:31 51°13.713 2°55.75 45.5 0.3 24 11.3
2009-05-25 07:29:35 51°13.713 2°55.75 42.8 0.1 278 11.3
2009-05-25 07:29:40 51°13.713 2°55.75 40 0.3 234 11.3
2009-05-25 07:29:45 51°13.712 2°55.749 37.5 0.6 219 11.3
2009-05-25 07:29:50 51°13.711 2°55.748 35.5 0.8 219 11.3
2009-05-25 07:29:55 51°13.71 2°55.746 33.5 0.8 217 11.3
2009-05-25 07:29:59 51°13.71 2°55.746 31.9 0.8 216 11.3
2009-05-25 07:30:04 51°13.709 2°55.744 30.4 0.8 217 11.2
2009-05-25 07:30:09 51°13.708 2°55.743 28.8 0.8 221 11.2
2009-05-25 07:30:15 51°13.707 2°55.742 27.4 0.7 219 -999
2009-05-25 07:30:20 51°13.707 2°55.741 25.9 0.5 231 4.5
2009-05-25 07:30:25 51°13.707 2°55.74 24.6 0.2 290 4.7
2009-05-25 07:30:30 51°13.707 2°55.74 22.6 0.4 345 4.5
2009-05-25 07:30:35 51°13.709 2°55.74 19 0.9 356 4.7
2009-05-25 07:30:40 51°13.71 2°55.74 13.9 1.2 356 4.7
2009-05-25 07:30:45 51°13.712 2°55.739 6.9 1.6 352 -999
2009-05-25 07:30:50 51°13.715 2°55.738 1.5 1.9 348 4.6
2009-05-25 07:30:55 51°13.718 2°55.737 353.5 2.3 344 11.1
2009-05-25 07:30:59 51°13.721 2°55.735 348.3 2.6 340 10.6
2009-05-25 07:31:04 51°13.724 2°55.733 343.1 2.9 338 10.4
2009-05-25 07:31:09 51°13.728 2°55.73 338.9 3.2 333 10.6
2009-05-25 07:31:14 51°13.732 2°55.727 335.7 3.5 332 10.7
2009-05-25 07:31:19 51°13.737 2°55.722 333.5 3.8 331 10.5
2009-05-25 07:31:23 51°13.741 2°55.719 332.4 4.1 330 10.2
2009-05-25 07:31:29 51°13.747 2°55.713 332.2 4.4 330 9.7
2009-05-25 07:31:34 51°13.752 2°55.708 331.8 4.7 329 9.3
2009-05-25 07:31:39 51°13.758 2°55.702 330.7 4.9 327 9
2009-05-25 07:31:44 51°13.764 2°55.696 329.8 5.1 327 8.8
2009-05-25 07:31:49 51°13.77 2°55.69 329.9 5.3 328 8.7
2009-05-25 07:31:54 51°13.776 2°55.684 330.2 5.5 327 8.9
2009-05-25 07:31:59 51°13.783 2°55.677 330.3 5.6 329 8.5
2009-05-25 07:32:04 51°13.79 2°55.671 331.1 5.7 329 9
2009-05-25 07:32:09 51°13.797 2°55.664 332.3 5.9 331 9
2009-05-25 07:32:14 51°13.804 2°55.658 333.5 6 331 9
2009-05-25 07:32:19 51°13.812 2°55.652 334.4 6 332 8.9
2009-05-25 07:32:24 51°13.819 2°55.645 335 6.1 332 8.9
2009-05-25 07:32:29 51°13.827 2°55.639 335.4 6.2 333 8.8
2009-05-25 07:32:34 51°13.835 2°55.633 335.8 6.3 334 8.8
2009-05-25 07:32:39 51°13.843 2°55.627 336.1 6.3 335 9.3
2009-05-25 07:32:43 51°13.849 2°55.622 336.4 6.4 334 9
2009-05-25 07:32:49 51°13.859 2°55.615 337.4 6.4 336 9
2009-05-25 07:32:54 51°13.867 2°55.609 338.3 6.5 335 9
2009-05-25 07:32:59 51°13.875 2°55.603 338.3 6.5 336 9.1
2009-05-25 07:33:04 51°13.884 2°55.597 338.8 6.5 336 9.2
2009-05-25 07:33:09 51°13.892 2°55.592 339.5 6.6 336 9.2
2009-05-25 07:33:14 51°13.901 2°55.586 339.5 6.6 335 9.4
2009-05-25 07:33:19 51°13.909 2°55.58 339 6.7 335 9.2
2009-05-25 07:33:24 51°13.917 2°55.573 338.6 6.7 334 9.3
2009-05-25 07:33:29 51°13.926 2°55.566 337.7 6.7 334 9.3
2009-05-25 07:33:34 51°13.934 2°55.559 336.8 6.7 333 9.4
2009-05-25 07:33:39 51°13.942 2°55.553 336.5 6.7 334 9.4
2009-05-25 07:33:44 51°13.951 2°55.546 337.2 6.8 334 9.3
2009-05-25 07:33:48 51°13.958 2°55.541 338.2 6.9 335 9.4
2009-05-25 07:33:54 51°13.968 2°55.533 338.3 7.1 334 9.4
2009-05-25 07:33:59 51°13.977 2°55.526 338.1 7.3 336 9.4
2009-05-25 07:34:04 51°13.986 2°55.519 338.2 7.4 334 9.3
2009-05-25 07:34:09 51°13.996 2°55.512 338.2 7.5 335 9.2
2009-05-25 07:34:14 51°14.005 2°55.505 337.6 7.6 333 9.2
2009-05-25 07:34:19 51°14.015 2°55.498 337.4 7.7 336 9.2
2009-05-25 07:34:24 51°14.025 2°55.49 337.8 7.8 334 9.2
2009-05-25 07:34:29 51°14.035 2°55.483 337.9 7.9 335 9.2
2009-05-25 07:34:34 51°14.045 2°55.475 337.7 7.9 334 9.2
2009-05-25 07:34:39 51°14.055 2°55.467 337.2 8 334 9.2
2009-05-25 07:34:44 51°14.065 2°55.46 337.1 8 334 9.2
2009-05-25 07:34:49 51°14.075 2°55.452 337.1 8.1 334 9.2
2009-05-25 07:34:54 51°14.085 2°55.444 336.9 8.2 333 9.1
2009-05-25 07:34:59 51°14.095 2°55.435 336.3 8.2 333 9.1
2009-05-25 07:35:04 51°14.105 2°55.427 336.4 8.3 334 9.1
2009-05-25 07:35:09 51°14.116 2°55.419 336.6 8.3 333 9
2009-05-25 07:35:14 51°14.126 2°55.411 337.1 8.4 335 9.2
2009-05-25 07:35:19 51°14.136 2°55.403 337.7 8.4 334 9.1
2009-05-25 07:35:24 51°14.147 2°55.395 337.8 8.4 334 9.1
2009-05-25 07:35:29 51°14.157 2°55.387 337.2 8.4 333 9.1
2009-05-25 07:35:34 51°14.168 2°55.379 336.9 8.4 334 9.1
2009-05-25 07:35:39 51°14.178 2°55.37 336.9 8.4 332 9.1
2009-05-25 07:35:44 51°14.188 2°55.361 335.4 8.4 330 9.1
2009-05-25 07:35:49 51°14.198 2°55.351 332.7 8.4 327 9.1
2009-05-25 07:35:54 51°14.208 2°55.341 330.4 8.4 326 9.1
2009-05-25 07:35:59 51°14.217 2°55.329 328 8.4 323 9.1
2009-05-25 07:36:04 51°14.227 2°55.318 326.3 8.4 322 9.1
2009-05-25 07:36:09 51°14.235 2°55.306 324.2 8.4 318 9.1
2009-05-25 07:36:14 51°14.244 2°55.293 321.8 8.4 317 9.2
2009-05-25 07:36:19 51°14.252 2°55.28 320.2 8.4 315 9
2009-05-25 07:36:24 51°14.261 2°55.267 318.4 8.5 314 9.1
2009-05-25 07:36:29 51°14.268 2°55.253 316.2 8.5 312 9.1
2009-05-25 07:36:35 51°14.278 2°55.236 315.7 8.6 313 9
2009-05-25 07:36:39 51°14.284 2°55.225 314.7 8.6 310 9
2009-05-25 07:36:44 51°14.292 2°55.21 313.3 8.6 310 9.2
2009-05-25 07:36:49 51°14.3 2°55.195 312.7 8.7 309 9
2009-05-25 07:36:55 51°14.309 2°55.177 311.8 8.7 308 9.1
2009-05-25 07:36:59 51°14.314 2°55.165 310.7 8.7 307 9.1
2009-05-25 07:37:03 51°14.32 2°55.152 309.3 8.7 305 9.1
2009-05-25 07:37:09 51°14.328 2°55.133 307.8 8.7 304 9.2
2009-05-25 07:37:15 51°14.336 2°55.114 306.3 8.7 302 9.2
2009-05-25 07:37:19 51°14.341 2°55.101 304.9 8.7 301 9.3
2009-05-25 07:37:23 51°14.345 2°55.088 303.7 8.7 300 9.2
2009-05-25 07:37:29 51°14.353 2°55.068 303.2 8.8 300 9.2
2009-05-25 07:37:34 51°14.358 2°55.051 303 8.8 298 9.1
2009-05-25 07:37:39 51°14.364 2°55.033 302.4 8.9 298 8.8
2009-05-25 07:37:44 51°14.37 2°55.016 302 8.9 297 8.7
2009-05-25 07:37:49 51°14.375 2°54.998 300.8 8.9 293 8.6
2009-05-25 07:37:54 51°14.379 2°54.98 299 9 292 8.6
2009-05-25 07:37:59 51°14.384 2°54.961 297.4 9.1 291 8.6
2009-05-25 07:38:04 51°14.388 2°54.942 296.3 9.2 291 8.6
2009-05-25 07:38:10 51°14.394 2°54.919 295.7 9.3 290 8.7
2009-05-25 07:38:14 51°14.398 2°54.904 297 9.3 294 8.8
2009-05-25 07:38:20 51°14.405 2°54.882 300.2 9.3 298 9
2009-05-25 07:38:24 51°14.41 2°54.868 305.4 9.2 301 9
2009-05-25 07:38:29 51°14.418 2°54.851 309.4 9.2 304 9.2
2009-05-25 07:38:34 51°14.425 2°54.834 313.4 9.3 306 9.2
2009-05-25 07:38:39 51°14.433 2°54.818 316.3 9.3 308 9.2
2009-05-25 07:38:45 51°14.443 2°54.798 316.6 9.5 306 9.2
2009-05-25 07:38:49 51°14.449 2°54.784 315.7 9.7 305 9.2
2009-05-25 07:38:54 51°14.456 2°54.765 314 9.8 303 9.2
2009-05-25 07:39:00 51°14.465 2°54.744 313.2 9.9 304 9.2
2009-05-25 07:39:04 51°14.471 2°54.729 312.8 10 303 9.2
2009-05-25 07:39:09 51°14.478 2°54.71 312.1 10 302 9.2
2009-05-25 07:39:14 51°14.486 2°54.691 311.2 10.1 301 9.3
2009-05-25 07:39:20 51°14.494 2°54.668 310 10.2 299 9.3
2009-05-25 07:39:24 51°14.499 2°54.651 308.3 10.2 298 9.3
2009-05-25 07:39:29 51°14.506 2°54.632 307.7 10.2 298 9.2
2009-05-25 07:39:34 51°14.513 2°54.611 307 10.3 297 9.2
2009-05-25 07:39:39 51°14.519 2°54.591 306.2 10.4 296 9.2
2009-05-25 07:39:44 51°14.525 2°54.57 305.7 10.4 296 9.1
2009-05-25 07:39:49 51°14.531 2°54.549 305.5 10.4 296 9.1
2009-05-25 07:39:54 51°14.537 2°54.528 304.1 10.5 293 9.1
2009-05-25 07:39:59 51°14.543 2°54.507 303.2 10.4 294 9.1
2009-05-25 07:40:04 51°14.548 2°54.485 302.5 10.5 292 9.1
2009-05-25 07:40:09 51°14.554 2°54.464 301.6 10.5 292 9.1
2009-05-25 07:40:14 51°14.559 2°54.442 300.9 10.5 291 9.1
2009-05-25 07:40:19 51°14.564 2°54.42 300.6 10.5 291 9.1
2009-05-25 07:40:24 51°14.569 2°54.399 300.4 10.5 290 9.1
2009-05-25 07:40:29 51°14.574 2°54.377 300.1 10.5 290 9.1
2009-05-25 07:40:34 51°14.58 2°54.355 300 10.6 290 9.2
2009-05-25 07:40:39 51°14.585 2°54.333 299.8 10.6 290 9.2
2009-05-25 07:40:44 51°14.59 2°54.311 299.7 10.5 290 9.2
2009-05-25 07:40:49 51°14.595 2°54.289 299.5 10.5 291 9.2
2009-05-25 07:40:54 51°14.6 2°54.267 299.6 10.5 291 9.3
2009-05-25 07:40:59 51°14.605 2°54.246 299.7 10.5 290 9.2
2009-05-25 07:41:04 51°14.61 2°54.224 299.1 10.5 290 9.2
2009-05-25 07:41:09 51°14.615 2°54.202 298.3 10.5 289 9.3
2009-05-25 07:41:14 51°14.62 2°54.18 297.9 10.6 288 9.2
2009-05-25 07:41:19 51°14.624 2°54.157 297.6 10.7 289 9.3
2009-05-25 07:41:24 51°14.628 2°54.135 296.2 10.8 286 9.3
2009-05-25 07:41:29 51°14.632 2°54.111 293.9 10.9 285 9.2
2009-05-25 07:41:34 51°14.636 2°54.088 292.8 11 284 9.3
2009-05-25 07:41:39 51°14.64 2°54.064 291.3 11.1 282 9.3
2009-05-25 07:41:44 51°14.643 2°54.04 290.4 11.2 282 9.3
2009-05-25 07:41:49 51°14.646 2°54.015 289.5 11.3 282 9.3
2009-05-25 07:41:54 51°14.649 2°53.991 289.4 11.5 282 9.2
2009-05-25 07:41:59 51°14.652 2°53.966 289.2 11.6 282 9.3
2009-05-25 07:42:04 51°14.655 2°53.94 289 11.8 280 9.3
2009-05-25 07:42:09 51°14.658 2°53.914 288 11.8 280 9.3
2009-05-25 07:42:14 51°14.661 2°53.888 287.6 11.9 280 9.2
2009-05-25 07:42:20 51°14.665 2°53.857 287.1 12.1 280 9.3
2009-05-25 07:42:24 51°14.667 2°53.836 287.4 12.2 280 9.2
2009-05-25 07:42:29 51°14.67 2°53.809 287.3 12.2 280 9
2009-05-25 07:42:34 51°14.673 2°53.782 286.8 12.2 279 9
2009-05-25 07:42:39 51°14.676 2°53.756 286.8 12.3 280 8.8
2009-05-25 07:42:44 51°14.679 2°53.729 287 12.3 280 8.6
2009-05-25 07:42:49 51°14.682 2°53.702 287.3 12.3 280 8.7
2009-05-25 07:42:54 51°14.684 2°53.675 287.3 12.3 279 8.6
2009-05-25 07:42:59 51°14.687 2°53.648 287.2 12.3 280 8.6
2009-05-25 07:43:04 51°14.69 2°53.622 287.5 12.3 280 8.5
2009-05-25 07:43:09 51°14.693 2°53.595 287.8 12.3 280 8.4
2009-05-25 07:43:14 51°14.696 2°53.568 288 12.3 280 8.5
2009-05-25 07:43:19 51°14.699 2°53.541 288.1 12.3 280 8.5
2009-05-25 07:43:24 51°14.702 2°53.515 287.7 12.3 280 8.3
2009-05-25 07:43:29 51°14.705 2°53.488 288 12.3 280 8.2
2009-05-25 07:43:34 51°14.708 2°53.461 288.2 12.3 280 8.1
2009-05-25 07:43:39 51°14.711 2°53.435 288.4 12.3 281 8.1
2009-05-25 07:43:44 51°14.714 2°53.408 288.4 12.3 281 8.1
2009-05-25 07:43:49 51°14.717 2°53.381 288.7 12.4 280 8.1
2009-05-25 07:43:54 51°14.72 2°53.354 288.2 12.4 280 8.1
2009-05-25 07:43:59 51°14.723 2°53.327 288.2 12.4 279 8
2009-05-25 07:44:04 51°14.726 2°53.3 288.2 12.4 280 8
2009-05-25 07:44:09 51°14.729 2°53.273 288.4 12.4 280 8.2
2009-05-25 07:44:14 51°14.732 2°53.246 288.7 12.4 280 8.2
2009-05-25 07:44:20 51°14.736 2°53.214 288.7 12.4 281 8
2009-05-25 07:44:24 51°14.739 2°53.193 289.3 12.4 281 8
2009-05-25 07:44:29 51°14.742 2°53.166 289 12.4 281 8.1
2009-05-25 07:44:34 51°14.745 2°53.139 288.9 12.4 281 8
2009-05-25 07:44:39 51°14.748 2°53.112 289 12.4 281 8.1
2009-05-25 07:44:44 51°14.752 2°53.085 289.1 12.4 281 8.2
2009-05-25 07:44:49 51°14.755 2°53.058 289 12.5 281 8.3
2009-05-25 07:44:54 51°14.759 2°53.031 289.2 12.4 281 8.1
2009-05-25 07:44:59 51°14.762 2°53.004 289.7 12.5 282 8.2
2009-05-25 07:45:04 51°14.766 2°52.977 289.8 12.5 281 8.3
2009-05-25 07:45:09 51°14.769 2°52.95 289.4 12.5 281 8.3
2009-05-25 07:45:14 51°14.772 2°52.923 289.5 12.5 282 8.3
2009-05-25 07:45:19 51°14.776 2°52.896 289.7 12.5 281 8.4
2009-05-25 07:45:24 51°14.779 2°52.868 289.5 12.5 281 8.4
2009-05-25 07:45:29 51°14.783 2°52.841 289.3 12.5 282 8.4
2009-05-25 07:45:34 51°14.786 2°52.814 289.4 12.5 282 8.3
2009-05-25 07:45:39 51°14.79 2°52.787 289.2 12.5 281 8.4
2009-05-25 07:45:44 51°14.793 2°52.76 289.2 12.5 282 8.3
2009-05-25 07:45:49 51°14.797 2°52.733 289.5 12.5 281 8.4
2009-05-25 07:45:54 51°14.8 2°52.706 289.3 12.5 282 8.3
2009-05-25 07:45:59 51°14.804 2°52.679 289.3 12.5 282 8.4
2009-05-25 07:46:04 51°14.808 2°52.652 289.5 12.5 282 8.4
2009-05-25 07:46:09 51°14.811 2°52.625 290 12.5 283 8.5
2009-05-25 07:46:14 51°14.815 2°52.598 290.2 12.5 282 8.5
2009-05-25 07:46:19 51°14.819 2°52.571 290 12.5 282 8.5
2009-05-25 07:46:24 51°14.822 2°52.544 289.8 12.5 281 8.5
2009-05-25 07:46:29 51°14.826 2°52.517 289.7 12.5 282 8.6
2009-05-25 07:46:34 51°14.83 2°52.49 289.9 12.5 282 8.6
2009-05-25 07:46:40 51°14.834 2°52.457 289.9 12.5 283 8.5
2009-05-25 07:46:44 51°14.837 2°52.436 290 12.5 282 8.6
2009-05-25 07:46:49 51°14.841 2°52.409 290.1 12.5 283 8.7
2009-05-25 07:46:54 51°14.845 2°52.382 290.4 12.5 282 8.6
2009-05-25 07:47:00 51°14.849 2°52.349 290.3 12.4 283 8.7
2009-05-25 07:47:04 51°14.852 2°52.328 290.2 12.4 283 8.7
2009-05-25 07:47:09 51°14.856 2°52.301 290 12.5 282 8.8
2009-05-25 07:47:14 51°14.86 2°52.274 289.7 12.5 283 8.7
2009-05-25 07:47:19 51°14.863 2°52.247 290.1 12.5 282 8.8
2009-05-25 07:47:24 51°14.867 2°52.22 289.8 12.5 282 8.9
2009-05-25 07:47:29 51°14.871 2°52.193 289.8 12.5 283 8.8
2009-05-25 07:47:34 51°14.874 2°52.166 289.8 12.6 282 8.9
2009-05-25 07:47:39 51°14.878 2°52.138 289.7 12.5 282 9
2009-05-25 07:47:44 51°14.882 2°52.111 289.7 12.6 282 9
2009-05-25 07:47:49 51°14.886 2°52.084 289.8 12.6 282 9
2009-05-25 07:47:54 51°14.889 2°52.057 289.8 12.5 282 9
2009-05-25 07:47:59 51°14.893 2°52.03 289.9 12.6 282 9.2
2009-05-25 07:48:04 51°14.897 2°52.003 290.1 12.6 282 9.1
2009-05-25 07:48:09 51°14.9 2°51.975 290.1 12.6 282 9.2
2009-05-25 07:48:14 51°14.904 2°51.948 290.1 12.6 283 9.3
2009-05-25 07:48:19 51°14.908 2°51.921 290.3 12.6 282 9.3
2009-05-25 07:48:24 51°14.912 2°51.894 290.3 12.6 282 9.4
2009-05-25 07:48:29 51°14.915 2°51.866 290.3 12.6 282 9.4
2009-05-25 07:48:34 51°14.919 2°51.839 290.2 12.6 283 9.4
2009-05-25 07:48:39 51°14.923 2°51.812 290.1 12.7 282 9.4
2009-05-25 07:48:44 51°14.927 2°51.785 290.3 12.6 282 9.6
2009-05-25 07:48:49 51°14.929 2°51.757 290.2 12.6 280 9.6
2009-05-25 07:48:54 51°14.933 2°51.73 289.4 12.7 278 9.7
2009-05-25 07:48:59 51°14.933 2°51.702 285.2 12.8 274 9.7
2009-05-25 07:49:04 51°14.935 2°51.674 282.5 12.8 274 9.8
2009-05-25 07:49:09 51°14.935 2°51.645 280.5 12.8 271 9.8
2009-05-25 07:49:14 51°14.935 2°51.617 278.5 12.9 270 9.8
2009-05-25 07:49:19 51°14.935 2°51.588 276.8 13 269 9.9
2009-05-25 07:49:24 51°14.934 2°51.56 275.5 13 268 9.9
2009-05-25 07:49:29 51°14.933 2°51.531 274.4 13 266 10
2009-05-25 07:49:34 51°14.932 2°51.502 273.5 13 267 10
2009-05-25 07:49:39 51°14.931 2°51.473 272.2 13 265 10.1
2009-05-25 07:49:44 51°14.93 2°51.445 271.5 13.1 266 10.2
2009-05-25 07:49:49 51°14.928 2°51.416 271 13.1 264 10.1
2009-05-25 07:49:54 51°14.926 2°51.387 270.5 13.1 265 10.1
2009-05-25 07:49:59 51°14.924 2°51.358 270.1 13.1 263 10.1
2009-05-25 07:50:04 51°14.922 2°51.329 269.8 13.1 264 10.1
2009-05-25 07:50:09 51°14.92 2°51.3 269.4 13.2 263 10.2
2009-05-25 07:50:14 51°14.918 2°51.272 269 13.2 265 10.3
2009-05-25 07:50:19 51°14.916 2°51.243 269.4 13.2 264 10.3
2009-05-25 07:50:24 51°14.916 2°51.214 271.5 13.1 268 10.4
2009-05-25 07:50:29 51°14.915 2°51.185 273.3 13.2 267 10.3
2009-05-25 07:50:34 51°14.914 2°51.156 274.4 12.7 270 10.4
2009-05-25 07:50:39 51°14.914 2°51.129 275.9 11.9 268 10.4
2009-05-25 07:50:44 51°14.914 2°51.105 276.4 11.1 269 10.6
2009-05-25 07:50:49 51°14.913 2°51.081 276.4 10.5 267 10.8
2009-05-25 07:50:54 51°14.912 2°51.06 275.5 9.7 266 10.8
2009-05-25 07:50:59 51°14.911 2°51.039 274.6 9.1 265 10.8
2009-05-25 07:51:04 51°14.91 2°51.02 273.4 8.6 263 10.6
2009-05-25 07:51:09 51°14.908 2°51.002 271.4 8.2 262 10.6
2009-05-25 07:51:14 51°14.906 2°50.986 269.3 7.6 260 10.7
2009-05-25 07:51:19 51°14.904 2°50.97 267.7 7.1 259 10.7
2009-05-25 07:51:24 51°14.903 2°50.955 267.1 6.7 259 10.8
2009-05-25 07:51:28 51°14.901 2°50.944 268.4 6.3 261 10.8
2009-05-25 07:51:34 51°14.9 2°50.928 270.1 5.9 260 10.8
2009-05-25 07:51:39 51°14.899 2°50.916 272.3 5.4 263 10.9
2009-05-25 07:51:44 51°14.898 2°50.905 276 5 263 10.9
2009-05-25 07:51:48 51°14.897 2°50.897 280.6 4.5 264 11
2009-05-25 07:51:54 51°14.897 2°50.886 285.1 4.2 266 10.9
2009-05-25 07:51:59 51°14.897 2°50.877 289.4 4.1 268 10.9
2009-05-25 07:52:04 51°14.896 2°50.868 292.8 3.9 268 10.9
2009-05-25 07:52:09 51°14.896 2°50.86 295.6 3.6 267 11
2009-05-25 07:52:14 51°14.896 2°50.853 297.6 3.3 265 11
2009-05-25 07:52:19 51°14.895 2°50.846 298.7 3 263 10.9
2009-05-25 07:52:24 51°14.895 2°50.84 298.9 2.9 260 11
2009-05-25 07:52:29 51°14.894 2°50.834 298.5 2.8 261 10.9
2009-05-25 07:52:34 51°14.893 2°50.827 298.4 2.9 260 11.1
2009-05-25 07:52:39 51°14.893 2°50.821 298.5 2.8 261 10.9
2009-05-25 07:52:44 51°14.892 2°50.815 299 2.8 261 10.9
2009-05-25 07:52:49 51°14.892 2°50.808 299.6 2.9 262 10.9
2009-05-25 07:52:54 51°14.891 2°50.802 300.7 2.9 264 11
2009-05-25 07:52:59 51°14.891 2°50.796 302.2 2.9 265 10.9
2009-05-25 07:53:04 51°14.89 2°50.789 303.6 3 267 11
2009-05-25 07:53:09 51°14.89 2°50.783 305.8 2.9 268 11
2009-05-25 07:53:13 51°14.89 2°50.778 308.1 2.9 269 11
2009-05-25 07:53:19 51°14.89 2°50.77 310.7 2.9 270 11
2009-05-25 07:53:24 51°14.89 2°50.764 313.3 2.9 270 11
2009-05-25 07:53:29 51°14.89 2°50.757 315.7 2.8 272 11
2009-05-25 07:53:34 51°14.89 2°50.751 318 2.7 272 11
2009-05-25 07:53:40 51°14.89 2°50.744 320.2 2.7 272 10.9
2009-05-25 07:53:44 51°14.891 2°50.74 322.3 2.6 272 10.9
2009-05-25 07:53:49 51°14.891 2°50.734 324.4 2.6 274 11.1
2009-05-25 07:53:54 51°14.891 2°50.728 326.2 2.7 274 11
2009-05-25 07:53:59 51°14.892 2°50.723 328.3 2.6 278 11.1
2009-05-25 07:54:04 51°14.892 2°50.717 330.9 2.6 279 11.2
2009-05-25 07:54:09 51°14.893 2°50.712 333.7 2.5 282 11.1
2009-05-25 07:54:13 51°14.893 2°50.707 336.6 2.5 283 11
2009-05-25 07:54:19 51°14.894 2°50.701 339.6 2.4 286 11
2009-05-25 07:54:24 51°14.895 2°50.696 342.5 2.4 288 11
2009-05-25 07:54:29 51°14.897 2°50.691 344.8 2.5 290 11.1
2009-05-25 07:54:34 51°14.898 2°50.686 346.6 2.4 293 11.1
2009-05-25 07:54:39 51°14.899 2°50.681 348.1 2.5 294 11
2009-05-25 07:54:44 51°14.901 2°50.676 349.4 2.4 297 11.1
2009-05-25 07:54:49 51°14.902 2°50.671 350.7 2.5 299 11.2
2009-05-25 07:54:54 51°14.904 2°50.667 351.7 2.6 302 11.1
2009-05-25 07:54:59 51°14.907 2°50.662 352.9 2.6 306 11.2
2009-05-25 07:55:04 51°14.909 2°50.658 354.3 2.6 308 11.2
2009-05-25 07:55:08 51°14.911 2°50.654 355.7 2.6 311 11.1
2009-05-25 07:55:14 51°14.914 2°50.649 357.3 2.6 314 11.1
2009-05-25 07:55:19 51°14.916 2°50.645 358.8 2.6 317 11.2
2009-05-25 07:55:24 51°14.919 2°50.641 0.4 2.7 319 11.1
2009-05-25 07:55:29 51°14.922 2°50.637 2.1 2.7 321 11.2
2009-05-25 07:55:34 51°14.925 2°50.634 3.7 2.7 324 11.3
2009-05-25 07:55:39 51°14.928 2°50.631 5.4 2.7 327 11.3
2009-05-25 07:55:44 51°14.931 2°50.627 7 2.7 329 11.3
2009-05-25 07:55:49 51°14.934 2°50.625 8.8 2.7 331 11.3
2009-05-25 07:55:54 51°14.938 2°50.622 10.3 2.7 333 11.3
2009-05-25 07:55:59 51°14.941 2°50.619 12 2.6 336 11.3
2009-05-25 07:56:04 51°14.944 2°50.617 13.7 2.6 337 11.3
2009-05-25 07:56:09 51°14.948 2°50.615 15.4 2.6 340 11.3
2009-05-25 07:56:14 51°14.951 2°50.613 17.1 2.6 342 11.3
2009-05-25 07:56:19 51°14.954 2°50.612 18.7 2.6 345 11.4
2009-05-25 07:56:24 51°14.958 2°50.611 20.3 2.5 347 11.3
2009-05-25 07:56:29 51°14.961 2°50.61 21.9 2.5 352 11.4
2009-05-25 07:56:33 51°14.964 2°50.609 23.3 2.5 353 11.5
2009-05-25 07:56:39 51°14.968 2°50.609 24.9 2.4 356 11.5
2009-05-25 07:56:44 51°14.971 2°50.608 27.6 2.3 358 11.4
2009-05-25 07:56:49 51°14.974 2°50.608 30.6 2.1 3 11.4
2009-05-25 07:56:54 51°14.977 2°50.609 33.5 2 6 11.5
2009-05-25 07:56:59 51°14.979 2°50.609 36.4 1.8 11 11.4
2009-05-25 07:57:04 51°14.982 2°50.61 38.7 1.7 14 11.4
2009-05-25 07:57:09 51°14.984 2°50.611 42.1 1.6 18 11.5
2009-05-25 07:57:14 51°14.986 2°50.613 44.9 1.5 25 11.5
2009-05-25 07:57:19 51°14.988 2°50.614 47.7 1.5 27 11.5
2009-05-25 07:57:24 51°14.989 2°50.616 50.1 1.4 35 11.4
2009-05-25 07:57:29 51°14.991 2°50.618 53.2 1.4 40 11.5
2009-05-25 07:57:34 51°14.992 2°50.62 55.2 1.3 44 11.4
2009-05-25 07:57:39 51°14.993 2°50.622 56.6 1.3 48 11.5
2009-05-25 07:57:44 51°14.994 2°50.624 58.3 1.3 51 11.5
2009-05-25 07:57:48 51°14.995 2°50.626 59.9 1.3 55 11.5
2009-05-25 07:57:54 51°14.997 2°50.629 60.8 1.3 56 11.5
2009-05-25 07:57:59 51°14.997 2°50.631 61.8 1.3 58 11.4
2009-05-25 07:58:04 51°14.998 2°50.634 62.5 1.4 59 11.4
2009-05-25 07:58:09 51°14.999 2°50.637 62.8 1.4 62 11.5
2009-05-25 07:58:14 51°15 2°50.64 63.2 1.4 65 11.4
2009-05-25 07:58:19 51°15.001 2°50.642 64 1.4 66 11.5
2009-05-25 07:58:24 51°15.002 2°50.645 64.7 1.4 69 11.4
2009-05-25 07:58:29 51°15.002 2°50.648 65.3 1.4 68 11.5
2009-05-25 07:58:34 51°15.003 2°50.651 65.7 1.4 71 11.5
2009-05-25 07:58:39 51°15.003 2°50.654 66.2 1.5 71 11.5
2009-05-25 07:58:44 51°15.004 2°50.657 66.9 1.5 74 11.4
2009-05-25 07:58:49 51°15.005 2°50.661 67.4 1.6 75 11.5
2009-05-25 07:58:54 51°15.005 2°50.664 67.9 1.7 78 11.5
2009-05-25 07:58:59 51°15.006 2°50.668 68.3 1.8 79 11.4
2009-05-25 07:59:04 51°15.006 2°50.672 69.4 1.8 78 11.4
2009-05-25 07:59:09 51°15.006 2°50.676 70.1 1.9 82 11.5
2009-05-25 07:59:13 51°15.007 2°50.679 70.9 1.9 81 11.3
2009-05-25 07:59:19 51°15.007 2°50.685 71.3 1.9 82 11.3
2009-05-25 07:59:24 51°15.007 2°50.689 71.9 2 83 11.4
2009-05-25 07:59:29 51°15.008 2°50.694 72.6 2.1 84 11.5
2009-05-25 07:59:34 51°15.008 2°50.698 73 2.1 84 11.4
2009-05-25 07:59:39 51°15.008 2°50.703 73.6 2.1 87 11.6
2009-05-25 07:59:44 51°15.009 2°50.708 74.1 2.2 86 11.6
2009-05-25 07:59:49 51°15.009 2°50.712 74.7 2.2 88 11.6
2009-05-25 07:59:54 51°15.009 2°50.717 75.1 2.2 88 11.4
2009-05-25 07:59:59 51°15.009 2°50.722 75.6 2.2 90 11.3
2009-05-25 08:00:04 51°15.009 2°50.727 76.4 2.2 91 11.4
2009-05-25 08:00:08 51°15.009 2°50.731 77.1 2.3 91 11.5
2009-05-25 08:00:14 51°15.009 2°50.737 77.7 2.3 93 11.5
2009-05-25 08:00:19 51°15.009 2°50.742 78.5 2.3 92 11.5
2009-05-25 08:00:24 51°15.008 2°50.747 79.1 2.3 95 11.4
2009-05-25 08:00:29 51°15.008 2°50.752 80.2 2.4 95 11.4
2009-05-25 08:00:34 51°15.007 2°50.757 81.1 2.4 98 11.4
2009-05-25 08:00:39 51°15.007 2°50.763 82.2 2.4 99 11.5
2009-05-25 08:00:44 51°15.006 2°50.768 83.3 2.5 101 11.3
2009-05-25 08:00:49 51°15.006 2°50.773 84.5 2.5 102 11.3
2009-05-25 08:00:54 51°15.005 2°50.779 85.4 2.5 104 11.5
2009-05-25 08:00:59 51°15.004 2°50.784 86.5 2.5 104 11.3
2009-05-25 08:01:04 51°15.003 2°50.79 87.8 2.6 106 11.3
2009-05-25 08:01:09 51°15.002 2°50.795 88.8 2.6 108 11.4
2009-05-25 08:01:14 51°15 2°50.801 89.8 2.7 109 11.4
2009-05-25 08:01:19 51°14.999 2°50.807 90.8 2.7 111 11.4
2009-05-25 08:01:24 51°14.998 2°50.812 91.9 2.7 112 11.3
2009-05-25 08:01:29 51°14.996 2°50.818 93.4 2.8 114 11.4
2009-05-25 08:01:33 51°14.995 2°50.822 94.3 2.8 114 11.4
2009-05-25 08:01:39 51°14.993 2°50.829 95.2 2.8 118 11.3
2009-05-25 08:01:44 51°14.991 2°50.834 96.6 2.8 118 11.3
2009-05-25 08:01:49 51°14.989 2°50.84 98 2.9 119 11.2
2009-05-25 08:01:54 51°14.987 2°50.845 99.1 2.9 122 11.3
2009-05-25 08:01:59 51°14.985 2°50.851 100.5 2.9 123 11.4
2009-05-25 08:02:04 51°14.982 2°50.856 101.6 3 125 11.4
2009-05-25 08:02:09 51°14.98 2°50.862 103 3 127 11.3
2009-05-25 08:02:14 51°14.977 2°50.867 104.3 3 129 11.4
2009-05-25 08:02:19 51°14.975 2°50.872 105.3 3.1 130 11.2
2009-05-25 08:02:24 51°14.972 2°50.877 106.7 3.1 131 11.2
2009-05-25 08:02:29 51°14.969 2°50.882 107.9 3.2 133 11.2
2009-05-25 08:02:33 51°14.966 2°50.886 109 3.2 134 11.2
2009-05-25 08:02:39 51°14.962 2°50.892 110.6 3.2 137 11.1
2009-05-25 08:02:44 51°14.959 2°50.897 111.7 3.3 138 11.2
2009-05-25 08:02:49 51°14.956 2°50.902 113 3.3 139 11.3
2009-05-25 08:02:54 51°14.952 2°50.907 114 3.4 140 11.1
2009-05-25 08:03:00 51°14.948 2°50.912 115.2 3.4 142 11.2
2009-05-25 08:03:04 51°14.944 2°50.916 116.5 3.4 143 11.2
2009-05-25 08:03:09 51°14.941 2°50.921 117.8 3.4 144 11.1
2009-05-25 08:03:14 51°14.937 2°50.925 118.9 3.5 146 11.1
2009-05-25 08:03:19 51°14.933 2°50.929 120.1 3.5 147 11.1
2009-05-25 08:03:24 51°14.928 2°50.933 121.4 3.6 149 11.1
2009-05-25 08:03:29 51°14.924 2°50.937 123 3.6 150 11.1
2009-05-25 08:03:34 51°14.919 2°50.941 124.8 3.8 153 11.1
2009-05-25 08:03:39 51°14.915 2°50.945 126.8 3.8 155 11
2009-05-25 08:03:44 51°14.91 2°50.948 129.3 3.9 158 11
2009-05-25 08:03:49 51°14.905 2°50.951 132.6 3.9 159 10.9
2009-05-25 08:03:53 51°14.901 2°50.953 134.8 4 164 10.9
2009-05-25 08:03:59 51°14.894 2°50.956 137.3 4 165 10.9
2009-05-25 08:04:04 51°14.888 2°50.958 140.1 4.1 167 10.9
2009-05-25 08:04:09 51°14.883 2°50.96 142.3 4.2 168 10.9
2009-05-25 08:04:14 51°14.877 2°50.962 144.8 4.3 172 10.8
2009-05-25 08:04:19 51°14.871 2°50.963 147.4 4.3 173 10.8
2009-05-25 08:04:24 51°14.865 2°50.964 149.9 4.4 176 10.9
2009-05-25 08:04:29 51°14.859 2°50.964 152.4 4.3 178 10.8
2009-05-25 08:04:34 51°14.853 2°50.964 154.7 4.4 180 10.8
2009-05-25 08:04:40 51°14.846 2°50.964 157 4.4 182 10.8
2009-05-25 08:04:44 51°14.841 2°50.963 159.4 4.4 184 10.7
2009-05-25 08:04:49 51°14.834 2°50.962 161.7 4.5 186 10.8
2009-05-25 08:04:53 51°14.829 2°50.961 163.9 4.5 188 10.8
2009-05-25 08:04:59 51°14.822 2°50.959 166 4.4 189 10.8
2009-05-25 08:05:04 51°14.816 2°50.957 168 4.5 191 10.7
2009-05-25 08:05:09 51°14.81 2°50.955 169.9 4.5 193 10.7
2009-05-25 08:05:14 51°14.804 2°50.953 172.1 4.4 194 10.7
2009-05-25 08:05:19 51°14.798 2°50.95 174.1 4.5 196 10.7
2009-05-25 08:05:24 51°14.792 2°50.947 175.9 4.5 196 10.7
2009-05-25 08:05:29 51°14.786 2°50.944 178.2 4.5 199 10.7
2009-05-25 08:05:34 51°14.781 2°50.941 179.7 4.5 200 10.6
2009-05-25 08:05:39 51°14.775 2°50.937 181.5 4.5 201 10.6
2009-05-25 08:05:44 51°14.769 2°50.934 183.3 4.5 202 10.6
2009-05-25 08:05:49 51°14.763 2°50.93 184.9 4.5 204 10.6
2009-05-25 08:05:54 51°14.757 2°50.926 186.7 4.5 204 10.6
2009-05-25 08:05:59 51°14.752 2°50.921 188.4 4.5 206 10.5
2009-05-25 08:06:04 51°14.746 2°50.917 190.2 4.5 207 10.5
2009-05-25 08:06:09 51°14.741 2°50.912 192.1 4.5 209 10.5
2009-05-25 08:06:14 51°14.735 2°50.907 193.5 4.4 209 10.5
2009-05-25 08:06:19 51°14.73 2°50.902 195 4.5 211 10.5
2009-05-25 08:06:24 51°14.725 2°50.897 196.6 4.4 211 10.5
2009-05-25 08:06:29 51°14.72 2°50.892 198.3 4.4 213 10.5
2009-05-25 08:06:34 51°14.715 2°50.887 199.9 4.4 213 10.5
2009-05-25 08:06:39 51°14.709 2°50.881 201.4 4.4 215 10.4
2009-05-25 08:06:44 51°14.705 2°50.876 203 4.4 216 10.4
2009-05-25 08:06:49 51°14.7 2°50.87 204.5 4.4 217 10.4
2009-05-25 08:06:54 51°14.695 2°50.864 206.1 4.4 217 10.4
2009-05-25 08:06:59 51°14.69 2°50.858 207.7 4.4 218 10.3
2009-05-25 08:07:04 51°14.685 2°50.852 209.1 4.4 219 10.4
2009-05-25 08:07:08 51°14.682 2°50.847 210.6 4.4 220 10.4
2009-05-25 08:07:14 51°14.676 2°50.84 212.1 4.4 220 10.5
2009-05-25 08:07:19 51°14.672 2°50.833 213.6 4.3 222 10.4
2009-05-25 08:07:24 51°14.667 2°50.827 214.9 4.4 222 10.4
2009-05-25 08:07:29 51°14.663 2°50.82 216.7 4.4 225 10.3
2009-05-25 08:07:34 51°14.658 2°50.813 218.3 4.3 226 10.2
2009-05-25 08:07:39 51°14.654 2°50.806 220 4.3 226 10.3
2009-05-25 08:07:44 51°14.65 2°50.799 221.6 4.3 227 10.3
2009-05-25 08:07:49 51°14.646 2°50.792 223 4.3 228 10.3
2009-05-25 08:07:54 51°14.642 2°50.785 224.6 4.3 228 10.4
2009-05-25 08:07:59 51°14.638 2°50.778 225.7 4.3 229 10.3
2009-05-25 08:08:04 51°14.634 2°50.771 226.4 4.3 229 10.2
2009-05-25 08:08:09 51°14.63 2°50.763 226.9 4.3 230 10.3
2009-05-25 08:08:14 51°14.627 2°50.756 227.4 4.3 230 10.3
2009-05-25 08:08:19 51°14.623 2°50.749 227.9 4.3 231 10.3
2009-05-25 08:08:24 51°14.619 2°50.742 228.1 4.3 230 10.3
2009-05-25 08:08:29 51°14.615 2°50.734 228.5 4.3 231 10.3
2009-05-25 08:08:33 51°14.612 2°50.728 228.8 4.3 231 10.3
2009-05-25 08:08:39 51°14.608 2°50.719 228.9 4.3 232 10.3
2009-05-25 08:08:44 51°14.604 2°50.712 229.3 4.3 231 10.2
2009-05-25 08:08:49 51°14.6 2°50.704 229.6 4.3 232 10.1
2009-05-25 08:08:54 51°14.596 2°50.697 230.2 4.3 232 10.2
2009-05-25 08:08:59 51°14.593 2°50.689 230.9 4.3 233 10.3
2009-05-25 08:09:04 51°14.589 2°50.682 231.6 4.3 233 10.2
2009-05-25 08:09:09 51°14.586 2°50.674 232.4 4.3 234 10.1
2009-05-25 08:09:14 51°14.582 2°50.666 233.4 4.3 234 10.2
2009-05-25 08:09:20 51°14.578 2°50.657 234.5 4.3 234 10.3
2009-05-25 08:09:24 51°14.575 2°50.651 235.4 4.3 235 10.3
2009-05-25 08:09:29 51°14.572 2°50.643 236 4.3 236 10.3
2009-05-25 08:09:33 51°14.569 2°50.637 236.4 4.3 235 10.3
2009-05-25 08:09:40 51°14.565 2°50.626 236.7 4.3 236 10.3
2009-05-25 08:09:44 51°14.562 2°50.619 237.2 4.3 237 10.2
2009-05-25 08:09:49 51°14.559 2°50.612 237.8 4.2 237 10.2
2009-05-25 08:09:54 51°14.556 2°50.604 238.7 4.2 237 10.2
2009-05-25 08:09:59 51°14.553 2°50.596 239.6 4.2 238 10.2
2009-05-25 08:10:04 51°14.55 2°50.588 240.3 4.1 239 10.2
2009-05-25 08:10:09 51°14.547 2°50.58 241.1 4.1 239 10.2
2009-05-25 08:10:14 51°14.544 2°50.573 241.8 4.1 240 10.1
2009-05-25 08:10:19 51°14.541 2°50.565 242.6 4.1 239 10.1
2009-05-25 08:10:24 51°14.538 2°50.557 243.3 4.1 239 10
2009-05-25 08:10:29 51°14.535 2°50.549 243.9 4.1 240 10.1
2009-05-25 08:10:34 51°14.532 2°50.542 244.1 4 240 10.1
2009-05-25 08:10:39 51°14.529 2°50.534 244.5 4 240 10.2
2009-05-25 08:10:44 51°14.527 2°50.526 245 4 240 10.2
2009-05-25 08:10:49 51°14.524 2°50.518 245.4 4 241 10
2009-05-25 08:10:54 51°14.521 2°50.511 245.7 4 241 10
2009-05-25 08:10:59 51°14.519 2°50.503 246.1 4 241 10
2009-05-25 08:11:04 51°14.516 2°50.495 246.3 4 241 10
2009-05-25 08:11:09 51°14.513 2°50.488 246.5 4 241 10
2009-05-25 08:11:14 51°14.511 2°50.48 246.7 4 241 10.1
2009-05-25 08:11:19 51°14.508 2°50.473 246.8 3.9 242 10.1
2009-05-25 08:11:24 51°14.505 2°50.465 246.8 3.9 242 10
2009-05-25 08:11:29 51°14.503 2°50.457 246.7 3.9 241 10
2009-05-25 08:11:34 51°14.5 2°50.45 246.6 3.9 241 10.1
2009-05-25 08:11:39 51°14.498 2°50.442 246.4 3.9 241 10
2009-05-25 08:11:44 51°14.495 2°50.435 246.3 3.9 241 9.9
2009-05-25 08:11:48 51°14.493 2°50.429 246.2 3.9 241 10.1
2009-05-25 08:11:54 51°14.49 2°50.42 246 3.9 241 10.1
2009-05-25 08:11:59 51°14.487 2°50.412 245.8 3.9 241 10
2009-05-25 08:12:04 51°14.484 2°50.404 245.9 3.9 242 10
2009-05-25 08:12:09 51°14.482 2°50.397 245.8 3.9 241 10
2009-05-25 08:12:14 51°14.479 2°50.389 245.9 3.9 241 10
2009-05-25 08:12:19 51°14.477 2°50.382 245.9 3.9 241 10
2009-05-25 08:12:24 51°14.474 2°50.374 245.9 3.9 242 10.1
2009-05-25 08:12:29 51°14.472 2°50.366 246 3.9 242 10
2009-05-25 08:12:34 51°14.469 2°50.359 246 3.9 241 10.1
2009-05-25 08:12:39 51°14.466 2°50.351 246.1 3.9 241 10.1
2009-05-25 08:12:44 51°14.464 2°50.344 246.1 3.9 242 10
2009-05-25 08:12:49 51°14.461 2°50.336 246.1 3.9 242 10
2009-05-25 08:12:54 51°14.458 2°50.328 246.1 3.9 241 10.1
2009-05-25 08:12:59 51°14.456 2°50.321 246 3.9 242 10
2009-05-25 08:13:04 51°14.453 2°50.313 246 3.9 242 10
2009-05-25 08:13:09 51°14.451 2°50.305 245.8 3.9 242 10
2009-05-25 08:13:13 51°14.449 2°50.299 245.7 3.9 241 10
2009-05-25 08:13:19 51°14.445 2°50.29 245.6 3.9 241 10
2009-05-25 08:13:24 51°14.443 2°50.283 245.3 3.9 241 10
2009-05-25 08:13:29 51°14.44 2°50.275 245.1 4 241 9.9
2009-05-25 08:13:34 51°14.437 2°50.268 244.7 3.9 240 9.9
2009-05-25 08:13:39 51°14.435 2°50.26 244.7 3.9 241 10
2009-05-25 08:13:44 51°14.432 2°50.252 244.4 3.9 241 10
2009-05-25 08:13:49 51°14.429 2°50.245 244.4 4 241 10
2009-05-25 08:13:54 51°14.427 2°50.237 244.3 4 241 9.9
2009-05-25 08:14:00 51°14.423 2°50.228 244.2 3.9 241 10
2009-05-25 08:14:04 51°14.421 2°50.222 244.1 3.9 240 10
2009-05-25 08:14:09 51°14.418 2°50.214 244 3.9 241 10
2009-05-25 08:14:13 51°14.416 2°50.208 244 4 241 10
2009-05-25 08:14:20 51°14.412 2°50.198 244 4 240 10
2009-05-25 08:14:24 51°14.41 2°50.191 244.1 4 241 9.9
2009-05-25 08:14:29 51°14.407 2°50.184 244.1 4 241 9.8
2009-05-25 08:14:34 51°14.405 2°50.176 244.2 4 241 9.9
2009-05-25 08:14:39 51°14.402 2°50.169 244.2 4 241 9.9
2009-05-25 08:14:44 51°14.399 2°50.161 244.2 4 241 9.9
2009-05-25 08:14:49 51°14.397 2°50.153 244.2 4 241 9.9
2009-05-25 08:14:54 51°14.394 2°50.146 244.2 4 241 9.9
2009-05-25 08:14:59 51°14.391 2°50.138 244.3 4 241 9.9
2009-05-25 08:15:04 51°14.388 2°50.13 244.2 4 241 9.9
2009-05-25 08:15:09 51°14.386 2°50.123 244 4 241 9.9
2009-05-25 08:15:14 51°14.383 2°50.115 244.1 4 242 9.8
2009-05-25 08:15:19 51°14.38 2°50.108 244.2 4 241 9.9
2009-05-25 08:15:24 51°14.378 2°50.1 244.3 4 242 9.9
2009-05-25 08:15:29 51°14.375 2°50.092 244.6 4 241 9.9
2009-05-25 08:15:34 51°14.372 2°50.084 244.7 4 241 10
2009-05-25 08:15:39 51°14.37 2°50.077 244.7 4 241 9.9
2009-05-25 08:15:44 51°14.367 2°50.069 244.8 4 242 9.9
2009-05-25 08:15:49 51°14.364 2°50.061 244.8 4 241 10
2009-05-25 08:15:54 51°14.362 2°50.054 244.9 4 241 9.9
2009-05-25 08:16:00 51°14.358 2°50.045 245 4 241 9.9
2009-05-25 08:16:04 51°14.356 2°50.039 244.9 4 241 10
2009-05-25 08:16:09 51°14.354 2°50.031 244.8 4 241 10
2009-05-25 08:16:14 51°14.351 2°50.023 244.7 4 241 10
2009-05-25 08:16:19 51°14.348 2°50.015 244.7 4 241 9.9
2009-05-25 08:16:24 51°14.346 2°50.007 244.7 4 241 9.9
2009-05-25 08:16:28 51°14.343 2°50.001 244.4 4 242 9.9
2009-05-25 08:16:34 51°14.34 2°49.992 244.3 4 241 9.9
2009-05-25 08:16:39 51°14.338 2°49.984 244.3 4 241 10
2009-05-25 08:16:44 51°14.335 2°49.977 244.1 4 240 10
2009-05-25 08:16:49 51°14.332 2°49.969 244 4 241 10
2009-05-25 08:16:54 51°14.329 2°49.961 244 4 241 9.9
2009-05-25 08:16:59 51°14.327 2°49.953 244.1 4 241 10
2009-05-25 08:17:04 51°14.324 2°49.946 244.1 4 240 9.9
2009-05-25 08:17:09 51°14.322 2°49.938 244.1 4 241 10
2009-05-25 08:17:14 51°14.319 2°49.93 244.1 4 241 10
2009-05-25 08:17:19 51°14.316 2°49.922 244.1 4 241 10
2009-05-25 08:17:24 51°14.313 2°49.915 244 4 241 10.1
2009-05-25 08:17:29 51°14.311 2°49.907 244 4 241 10
2009-05-25 08:17:34 51°14.308 2°49.899 244 4 241 9.9
2009-05-25 08:17:39 51°14.305 2°49.891 244 4 241 10
2009-05-25 08:17:44 51°14.303 2°49.884 244 4 241 10
2009-05-25 08:17:49 51°14.3 2°49.876 243.9 4 240 10.1
2009-05-25 08:17:53 51°14.298 2°49.87 243.6 4 240 10.1
2009-05-25 08:17:59 51°14.294 2°49.86 243.5 4 240 10
2009-05-25 08:18:04 51°14.292 2°49.853 243.5 4 241 10
2009-05-25 08:18:09 51°14.289 2°49.845 243.6 4 240 10.1
2009-05-25 08:18:14 51°14.286 2°49.837 243.7 4 241 10
2009-05-25 08:18:20 51°14.283 2°49.828 243.8 4 241 10
2009-05-25 08:18:24 51°14.281 2°49.822 244 4 241 10.1
2009-05-25 08:18:29 51°14.278 2°49.814 244 4 241 10.2
2009-05-25 08:18:34 51°14.275 2°49.806 244.2 4 241 10
2009-05-25 08:18:40 51°14.272 2°49.797 244.4 4 241 10
2009-05-25 08:18:44 51°14.27 2°49.791 244.4 4 242 10.1
2009-05-25 08:18:49 51°14.267 2°49.783 244.7 4 240 10.1
2009-05-25 08:18:53 51°14.265 2°49.776 244.7 4 241 10.1
2009-05-25 08:18:59 51°14.262 2°49.767 244.7 4 241 10.2
2009-05-25 08:19:04 51°14.259 2°49.759 244.7 4 241 10.1
2009-05-25 08:19:09 51°14.256 2°49.751 244.7 4 240 10
2009-05-25 08:19:14 51°14.254 2°49.744 244.7 4 242 10
2009-05-25 08:19:19 51°14.251 2°49.736 244.7 4 241 10.2
2009-05-25 08:19:24 51°14.248 2°49.728 244.7 4 240 10.2
2009-05-25 08:19:29 51°14.245 2°49.721 244.7 4 240 10.2
2009-05-25 08:19:34 51°14.243 2°49.713 244.7 4.1 241 10.2
2009-05-25 08:19:39 51°14.24 2°49.705 244.7 4 240 10
2009-05-25 08:19:44 51°14.237 2°49.697 244.7 4 240 10
2009-05-25 08:19:49 51°14.234 2°49.689 244.4 4 240 10.1
2009-05-25 08:19:54 51°14.232 2°49.682 244.3 4 240 10.1
2009-05-25 08:19:59 51°14.229 2°49.674 244.1 4 240 10.1
2009-05-25 08:20:04 51°14.226 2°49.666 244.1 4 241 10.1
2009-05-25 08:20:09 51°14.223 2°49.658 244.1 4 240 10.1
2009-05-25 08:20:13 51°14.221 2°49.652 244.1 4 241 10.1
2009-05-25 08:20:19 51°14.218 2°49.643 244.3 4 240 10.1
2009-05-25 08:20:24 51°14.215 2°49.635 244.3 4 240 10
2009-05-25 08:20:29 51°14.212 2°49.628 244.4 4 240 10
2009-05-25 08:20:34 51°14.21 2°49.62 244.4 4 240 10
2009-05-25 08:20:40 51°14.206 2°49.611 244.3 4 240 10.1
2009-05-25 08:20:44 51°14.204 2°49.604 244.2 4 239 10.2
2009-05-25 08:20:49 51°14.201 2°49.597 244.1 4 241 10
2009-05-25 08:20:54 51°14.198 2°49.589 244 4 239 10.1
2009-05-25 08:20:59 51°14.196 2°49.581 244 4 240 10.1
2009-05-25 08:21:04 51°14.193 2°49.574 243.8 4 239 10.1
2009-05-25 08:21:08 51°14.191 2°49.567 243.8 4 239 10.1
2009-05-25 08:21:14 51°14.187 2°49.558 243.7 4 240 10
2009-05-25 08:21:19 51°14.184 2°49.551 243.7 4 240 10.1
2009-05-25 08:21:24 51°14.181 2°49.543 243.7 4 239 10.1
2009-05-25 08:21:29 51°14.179 2°49.535 243.7 4 240 10.1
2009-05-25 08:21:34 51°14.176 2°49.528 244 4 240 10
2009-05-25 08:21:39 51°14.173 2°49.52 244.1 4 240 10
2009-05-25 08:21:44 51°14.17 2°49.512 244.3 4 240 10
2009-05-25 08:21:49 51°14.167 2°49.505 244.4 4 240 10.1
2009-05-25 08:21:54 51°14.165 2°49.497 244.4 4 240 10
2009-05-25 08:21:59 51°14.162 2°49.489 244.5 4 239 10
2009-05-25 08:22:04 51°14.159 2°49.481 244.5 4 240 10.1
2009-05-25 08:22:09 51°14.156 2°49.474 244.4 4 240 10
2009-05-25 08:22:14 51°14.153 2°49.466 244.3 4 240 10
2009-05-25 08:22:19 51°14.15 2°49.458 244.2 4 240 10
2009-05-25 08:22:24 51°14.148 2°49.451 244.1 4 240 10
2009-05-25 08:22:29 51°14.145 2°49.443 244 4 239 10
2009-05-25 08:22:33 51°14.142 2°49.437 243.9 4 240 10
2009-05-25 08:22:39 51°14.139 2°49.428 243.9 4 240 10.1
2009-05-25 08:22:44 51°14.136 2°49.42 243.8 4 239 10.1
2009-05-25 08:22:49 51°14.134 2°49.413 243.6 4 241 10
2009-05-25 08:22:54 51°14.131 2°49.405 243.6 4 240 10
2009-05-25 08:23:00 51°14.127 2°49.396 243.7 4 240 10
2009-05-25 08:23:04 51°14.125 2°49.39 243.7 4 240 9.9
2009-05-25 08:23:09 51°14.122 2°49.382 243.8 4 240 10.1
2009-05-25 08:23:14 51°14.12 2°49.375 244 4 240 10
2009-05-25 08:23:19 51°14.117 2°49.367 244.1 4 241 9.9
2009-05-25 08:23:24 51°14.114 2°49.36 244.4 3.9 240 10
2009-05-25 08:23:29 51°14.112 2°49.352 244.5 3.9 241 10
2009-05-25 08:23:33 51°14.109 2°49.346 244.6 3.9 240 10
2009-05-25 08:23:39 51°14.106 2°49.337 244.7 3.9 241 10
2009-05-25 08:23:44 51°14.103 2°49.329 244.7 3.9 239 10
2009-05-25 08:23:49 51°14.1 2°49.322 244.6 3.9 240 10
2009-05-25 08:23:54 51°14.098 2°49.314 244.4 3.9 239 10
2009-05-25 08:23:59 51°14.095 2°49.307 244.3 3.9 240 10.1
2009-05-25 08:24:04 51°14.092 2°49.299 244.3 3.9 239 10.1
2009-05-25 08:24:09 51°14.09 2°49.292 244.2 3.9 241 10
2009-05-25 08:24:14 51°14.087 2°49.284 244.2 3.9 240 10
2009-05-25 08:24:19 51°14.084 2°49.277 244.3 3.9 240 9.9
2009-05-25 08:24:24 51°14.081 2°49.269 244.5 3.9 240 9.9
2009-05-25 08:24:29 51°14.079 2°49.262 244.6 3.9 240 9.9
2009-05-25 08:24:34 51°14.076 2°49.254 244.7 3.9 240 10
2009-05-25 08:24:39 51°14.073 2°49.247 244.7 3.9 240 10
2009-05-25 08:24:44 51°14.071 2°49.239 244.7 3.9 240 10
2009-05-25 08:24:49 51°14.068 2°49.232 244.8 3.9 240 10
2009-05-25 08:24:53 51°14.066 2°49.226 244.9 3.9 240 10.1
2009-05-25 08:24:59 51°14.062 2°49.217 245 4 239 10.1
2009-05-25 08:25:04 51°14.059 2°49.209 245.1 4 239 10.1
2009-05-25 08:25:09 51°14.056 2°49.202 245.2 4 239 10
2009-05-25 08:25:14 51°14.054 2°49.194 245.3 4 239 10
2009-05-25 08:25:20 51°14.05 2°49.185 245.3 3.9 239 10
2009-05-25 08:25:24 51°14.048 2°49.18 245.2 3.9 239 10
2009-05-25 08:25:29 51°14.045 2°49.172 245.1 3.9 239 10
2009-05-25 08:25:34 51°14.043 2°49.165 245.1 4 239 10
2009-05-25 08:25:39 51°14.04 2°49.157 245.2 4 239 10
2009-05-25 08:25:44 51°14.037 2°49.15 245.2 4 239 10
2009-05-25 08:25:48 51°14.034 2°49.144 245.3 3.9 239 9.9
2009-05-25 08:25:54 51°14.031 2°49.135 245 3.9 240 10
2009-05-25 08:25:59 51°14.028 2°49.128 244.9 3.9 238 10.1
2009-05-25 08:26:04 51°14.026 2°49.121 244.8 3.9 238 10.1
2009-05-25 08:26:09 51°14.023 2°49.113 244.4 3.9 239 10.1
2009-05-25 08:26:14 51°14.02 2°49.106 244.5 3.9 237 10.1
2009-05-25 08:26:19 51°14.017 2°49.098 244.3 3.9 238 10
2009-05-25 08:26:24 51°14.014 2°49.091 244.1 3.8 239 10
2009-05-25 08:26:29 51°14.011 2°49.084 244 3.8 238 10
2009-05-25 08:26:34 51°14.009 2°49.077 243.9 3.9 238 10.1
2009-05-25 08:26:39 51°14.006 2°49.07 243.9 3.8 239 10
2009-05-25 08:26:44 51°14.003 2°49.062 244 3.8 238 10
2009-05-25 08:26:49 51°14 2°49.055 243.9 3.8 238 10.1
2009-05-25 08:26:54 51°13.997 2°49.048 243.8 3.8 238 10.1
2009-05-25 08:26:59 51°13.994 2°49.041 243.8 3.9 237 10
2009-05-25 08:27:04 51°13.992 2°49.034 244 3.8 237 10
2009-05-25 08:27:09 51°13.989 2°49.026 244 3.8 238 10
2009-05-25 08:27:13 51°13.986 2°49.021 244.1 3.8 237 10.1
2009-05-25 08:27:19 51°13.983 2°49.012 244.1 3.8 238 10.1
2009-05-25 08:27:24 51°13.98 2°49.005 244.3 3.8 237 10.1
2009-05-25 08:27:29 51°13.977 2°48.998 244.4 3.8 237 10.2
2009-05-25 08:27:34 51°13.974 2°48.991 244.5 3.8 237 10.1
2009-05-25 08:27:40 51°13.971 2°48.982 244.7 3.8 238 10.2
2009-05-25 08:27:44 51°13.969 2°48.977 244.7 3.8 238 10.2
2009-05-25 08:27:49 51°13.966 2°48.969 244.9 3.8 239 10
2009-05-25 08:27:54 51°13.963 2°48.962 245 3.8 238 10.1
2009-05-25 08:27:59 51°13.961 2°48.955 245.3 3.8 239 10
2009-05-25 08:28:04 51°13.958 2°48.948 245.5 3.8 238 10.1
2009-05-25 08:28:09 51°13.955 2°48.941 245.8 3.8 239 10.1
2009-05-25 08:28:13 51°13.953 2°48.935 246 3.7 240 10.1
2009-05-25 08:28:19 51°13.95 2°48.927 246.2 3.7 239 10.1
2009-05-25 08:28:24 51°13.947 2°48.92 246.6 3.7 239 10.1
2009-05-25 08:28:29 51°13.945 2°48.913 247.2 3.7 241 10
2009-05-25 08:28:34 51°13.942 2°48.906 248.1 3.7 240 10.2
2009-05-25 08:28:39 51°13.94 2°48.899 249.3 3.6 241 10.1
2009-05-25 08:28:44 51°13.938 2°48.892 250.8 3.6 241 10.2
2009-05-25 08:28:49 51°13.935 2°48.885 252.3 3.6 243 10.2
2009-05-25 08:28:54 51°13.933 2°48.878 254 3.6 243 10.2
2009-05-25 08:28:59 51°13.931 2°48.87 255.6 3.5 244 10.2
2009-05-25 08:29:04 51°13.929 2°48.863 257.1 3.5 245 10
2009-05-25 08:29:09 51°13.927 2°48.856 258.5 3.5 246 10.1
2009-05-25 08:29:14 51°13.925 2°48.849 260.1 3.5 246 10.3
2009-05-25 08:29:19 51°13.923 2°48.842 261.9 3.5 248 10.1
2009-05-25 08:29:24 51°13.921 2°48.835 263.5 3.4 249 10.3
2009-05-25 08:29:29 51°13.919 2°48.828 265 3.4 249 10.3
2009-05-25 08:29:33 51°13.918 2°48.822 266.8 3.4 250 10.2
2009-05-25 08:29:39 51°13.916 2°48.814 268.4 3.4 252 10.2
2009-05-25 08:29:44 51°13.915 2°48.807 270 3.4 252 10.2
2009-05-25 08:29:49 51°13.914 2°48.8 271.5 3.3 254 10.2
2009-05-25 08:29:54 51°13.912 2°48.792 273 3.4 253 10
2009-05-25 08:30:00 51°13.911 2°48.784 274.5 3.3 255 10.2
2009-05-25 08:30:04 51°13.91 2°48.778 276 3.3 255 10.2
2009-05-25 08:30:09 51°13.909 2°48.771 277.4 3.3 256 10.2
2009-05-25 08:30:14 51°13.908 2°48.764 278.8 3.2 258 10.2
2009-05-25 08:30:19 51°13.907 2°48.757 280.2 3.2 258 10.2
2009-05-25 08:30:24 51°13.906 2°48.75 281.8 3.3 259 10.2
2009-05-25 08:30:28 51°13.905 2°48.745 283.6 3.2 260 10.2
2009-05-25 08:30:34 51°13.904 2°48.736 285 3.2 261 10.3
2009-05-25 08:30:39 51°13.904 2°48.729 286.5 3.2 262 10.3
2009-05-25 08:30:44 51°13.903 2°48.722 288.1 3.2 263 10.1
2009-05-25 08:30:49 51°13.902 2°48.715 289.6 3.2 263 10.4
2009-05-25 08:30:54 51°13.902 2°48.708 291.1 3.1 264 10.4
2009-05-25 08:30:59 51°13.902 2°48.702 292.6 3 264 10.2
2009-05-25 08:31:04 51°13.901 2°48.695 293.8 3 264 10.3
2009-05-25 08:31:09 51°13.901 2°48.689 295 2.9 263 10.4
2009-05-25 08:31:14 51°13.9 2°48.682 296.2 2.9 264 10.3
2009-05-25 08:31:19 51°13.9 2°48.676 297.5 2.8 265 10.3
2009-05-25 08:31:24 51°13.899 2°48.67 298.3 2.8 263 10.3
2009-05-25 08:31:29 51°13.899 2°48.664 299.2 2.7 264 10.5
2009-05-25 08:31:34 51°13.899 2°48.658 300.2 2.7 264 10.4
2009-05-25 08:31:39 51°13.898 2°48.652 301.2 2.7 264 10.5
2009-05-25 08:31:44 51°13.898 2°48.646 301.8 2.7 263 10.5
2009-05-25 08:31:49 51°13.898 2°48.64 302.5 2.6 264 10.4
2009-05-25 08:31:53 51°13.897 2°48.636 303 2.6 264 10.6
2009-05-25 08:32:00 51°13.896 2°48.628 303.9 2.6 262 10.2
2009-05-25 08:32:04 51°13.896 2°48.623 304 2.6 261 10.5
2009-05-25 08:32:09 51°13.895 2°48.618 304.2 2.5 261 10.6
2009-05-25 08:32:14 51°13.895 2°48.612 304.2 2.5 261 10.5
2009-05-25 08:32:20 51°13.894 2°48.606 304.2 2.5 261 10.5
2009-05-25 08:32:24 51°13.894 2°48.602 304.2 2.4 260 10.4
2009-05-25 08:32:29 51°13.893 2°48.596 304.3 2.4 260 10.5
2009-05-25 08:32:34 51°13.892 2°48.591 304.5 2.4 259 10.6
2009-05-25 08:32:39 51°13.892 2°48.586 304.7 2.4 259 10.5
2009-05-25 08:32:44 51°13.891 2°48.581 305 2.4 258 10.6
2009-05-25 08:32:48 51°13.891 2°48.577 305.3 2.4 258 10.7
2009-05-25 08:32:54 51°13.89 2°48.571 305.7 2.3 258 10.7
2009-05-25 08:32:59 51°13.889 2°48.566 306 2.3 257 10.5
2009-05-25 08:33:04 51°13.889 2°48.561 306.4 2.2 257 10.5
2009-05-25 08:33:09 51°13.888 2°48.556 306.8 2.2 257 10.5
2009-05-25 08:33:14 51°13.887 2°48.552 307.2 2.2 256 10.5
2009-05-25 08:33:19 51°13.886 2°48.547 307.7 2.2 257 10.5
2009-05-25 08:33:24 51°13.886 2°48.543 308 2.2 257 10.6
2009-05-25 08:33:29 51°13.885 2°48.538 308.5 2.1 256 10.6
2009-05-25 08:33:34 51°13.884 2°48.534 309 2.1 256 10.6
2009-05-25 08:33:39 51°13.883 2°48.529 309.3 2.1 255 10.6
2009-05-25 08:33:44 51°13.883 2°48.525 309.6 2.1 254 10.5
2009-05-25 08:33:49 51°13.882 2°48.52 310 2 254 10.7
2009-05-25 08:33:54 51°13.881 2°48.516 310.7 2 255 10.7
2009-05-25 08:33:59 51°13.88 2°48.512 311.2 2 255 10.7
2009-05-25 08:34:04 51°13.88 2°48.508 311.7 2 254 10.5
2009-05-25 08:34:09 51°13.879 2°48.504 312.5 1.9 254 10.6
2009-05-25 08:34:13 51°13.878 2°48.5 313.4 1.9 254 10.5
2009-05-25 08:34:20 51°13.877 2°48.495 314 1.9 255 10.6
2009-05-25 08:34:24 51°13.877 2°48.492 314.9 1.9 254 10.6
2009-05-25 08:34:29 51°13.876 2°48.488 315.6 1.9 254 10.7
2009-05-25 08:34:34 51°13.875 2°48.484 316.2 1.8 254 10.6
2009-05-25 08:34:40 51°13.875 2°48.479 316.9 1.8 252 10.5
2009-05-25 08:34:44 51°13.874 2°48.476 317.7 1.8 252 10.7
2009-05-25 08:34:49 51°13.873 2°48.472 318.4 1.9 252 10.8
2009-05-25 08:34:54 51°13.872 2°48.468 319 1.8 251 10.6
2009-05-25 08:34:59 51°13.872 2°48.465 319.4 1.8 251 10.6
2009-05-25 08:35:04 51°13.871 2°48.461 319.5 1.8 252 10.7
2009-05-25 08:35:09 51°13.87 2°48.458 320.1 1.8 251 10.7
2009-05-25 08:35:14 51°13.869 2°48.454 320.5 1.7 252 10.7
2009-05-25 08:35:19 51°13.868 2°48.45 321 1.7 250 10.7
2009-05-25 08:35:24 51°13.868 2°48.447 321.9 1.7 250 10.5
2009-05-25 08:35:29 51°13.867 2°48.443 322.4 1.7 249 10.6
2009-05-25 08:35:34 51°13.866 2°48.44 322.9 1.7 249 10.7
2009-05-25 08:35:39 51°13.865 2°48.437 323.7 1.6 250 10.8
2009-05-25 08:35:44 51°13.864 2°48.433 324.2 1.6 249 10.7
2009-05-25 08:35:49 51°13.864 2°48.43 325.2 1.5 247 10.5
2009-05-25 08:35:54 51°13.863 2°48.427 325.7 1.6 248 10.7
2009-05-25 08:35:59 51°13.862 2°48.424 326.5 1.5 248 10.7
2009-05-25 08:36:04 51°13.861 2°48.421 327.1 1.5 248 10.6
2009-05-25 08:36:09 51°13.86 2°48.418 327.9 1.5 246 10.6
2009-05-25 08:36:14 51°13.86 2°48.415 328.6 1.4 248 10.6
2009-05-25 08:36:19 51°13.859 2°48.412 329.4 1.4 247 10.7
2009-05-25 08:36:24 51°13.858 2°48.409 330.3 1.4 247 10.6
2009-05-25 08:36:28 51°13.857 2°48.407 331.1 1.4 245 10.6
2009-05-25 08:36:34 51°13.856 2°48.403 331.8 1.4 245 10.7
2009-05-25 08:36:39 51°13.856 2°48.401 332.8 1.4 244 10.6
2009-05-25 08:36:44 51°13.855 2°48.398 333.6 1.4 245 10.6
2009-05-25 08:36:49 51°13.854 2°48.395 334.6 1.4 243 10.6
2009-05-25 08:36:54 51°13.853 2°48.393 335.4 1.4 243 10.7
2009-05-25 08:36:59 51°13.852 2°48.39 336.1 1.3 242 10.7
2009-05-25 08:37:04 51°13.851 2°48.387 336.9 1.4 241 10.9
2009-05-25 08:37:09 51°13.85 2°48.384 337.9 1.4 242 10.7
2009-05-25 08:37:14 51°13.85 2°48.382 338.5 1.3 242 10.7
2009-05-25 08:37:19 51°13.848 2°48.379 339.2 1.3 241 10.7
2009-05-25 08:37:24 51°13.848 2°48.377 340 1.3 240 10.8
2009-05-25 08:37:29 51°13.847 2°48.374 340.7 1.3 240 10.7
2009-05-25 08:37:34 51°13.846 2°48.372 341.2 1.3 238 10.7
2009-05-25 08:37:39 51°13.845 2°48.369 341.8 1.3 236 10.7
2009-05-25 08:37:44 51°13.844 2°48.367 342.4 1.3 237 10.8
2009-05-25 08:37:49 51°13.843 2°48.365 343.2 1.3 237 10.7
2009-05-25 08:37:53 51°13.842 2°48.363 343.5 1.3 236 10.7
2009-05-25 08:37:59 51°13.841 2°48.36 344.1 1.2 237 10.7
2009-05-25 08:38:04 51°13.84 2°48.358 344.5 1.2 236 10.7
2009-05-25 08:38:09 51°13.839 2°48.356 345 1.2 235 10.7
2009-05-25 08:38:14 51°13.838 2°48.353 345.6 1.2 235 10.7
2009-05-25 08:38:19 51°13.837 2°48.351 346 1.2 234 10.7
2009-05-25 08:38:24 51°13.836 2°48.349 346.4 1.2 234 10.6
2009-05-25 08:38:29 51°13.835 2°48.346 347 1.2 234 10.7
2009-05-25 08:38:34 51°13.835 2°48.344 347.4 1.2 234 10.7
2009-05-25 08:38:40 51°13.833 2°48.342 347.7 1.2 233 10.7
2009-05-25 08:38:44 51°13.832 2°48.34 348.2 1.2 232 10.8
2009-05-25 08:38:49 51°13.831 2°48.338 348.6 1.2 232 10.7
2009-05-25 08:38:53 51°13.831 2°48.336 349.1 1.2 231 10.6
2009-05-25 08:39:00 51°13.829 2°48.334 349.3 1.2 230 10.7
2009-05-25 08:39:04 51°13.828 2°48.332 349.6 1.2 229 10.7
2009-05-25 08:39:09 51°13.827 2°48.33 349.9 1.2 229 10.7
2009-05-25 08:39:14 51°13.826 2°48.328 350.2 1.2 231 10.7
2009-05-25 08:39:19 51°13.825 2°48.326 350.6 1.2 230 10.7
2009-05-25 08:39:24 51°13.824 2°48.324 350.9 1.2 230 10.7
2009-05-25 08:39:29 51°13.823 2°48.322 351.3 1.2 229 10.7
2009-05-25 08:39:34 51°13.822 2°48.32 351.4 1.2 228 10.7
2009-05-25 08:39:39 51°13.821 2°48.318 351.7 1.2 228 10.7
2009-05-25 08:39:44 51°13.82 2°48.316 352 1.2 228 10.7
2009-05-25 08:39:49 51°13.819 2°48.314 352.4 1.3 227 10.8
2009-05-25 08:39:54 51°13.817 2°48.312 352.7 1.2 225 10.7
2009-05-25 08:39:59 51°13.816 2°48.311 352.8 1.2 225 10.6
2009-05-25 08:40:04 51°13.815 2°48.309 353.1 1.2 227 10.6
2009-05-25 08:40:09 51°13.814 2°48.307 353.4 1.2 225 10.7
2009-05-25 08:40:14 51°13.813 2°48.305 353.6 1.2 225 10.7
2009-05-25 08:40:19 51°13.812 2°48.303 353.9 1.2 225 10.7
2009-05-25 08:40:24 51°13.81 2°48.301 354.2 1.2 224 10.7
2009-05-25 08:40:29 51°13.809 2°48.299 354.5 1.2 225 10.6
2009-05-25 08:40:34 51°13.808 2°48.297 354.9 1.3 224 10.6
2009-05-25 08:40:39 51°13.807 2°48.295 355.2 1.2 224 10.7
2009-05-25 08:40:44 51°13.805 2°48.294 355.6 1.2 224 10.7
2009-05-25 08:40:49 51°13.804 2°48.292 355.9 1.3 225 10.6
2009-05-25 08:40:53 51°13.803 2°48.29 356 1.3 224 10.8
2009-05-25 08:40:59 51°13.802 2°48.288 356.2 1.2 223 10.7
2009-05-25 08:41:04 51°13.8 2°48.286 356.3 1.3 225 10.6
2009-05-25 08:41:09 51°13.799 2°48.284 356.5 1.3 223 10.6
2009-05-25 08:41:14 51°13.798 2°48.282 356.7 1.3 223 10.6
2009-05-25 08:41:20 51°13.796 2°48.28 356.8 1.3 224 10.7
2009-05-25 08:41:24 51°13.795 2°48.278 356.8 1.3 223 10.7
2009-05-25 08:41:29 51°13.794 2°48.276 356.9 1.3 223 10.7
2009-05-25 08:41:34 51°13.793 2°48.274 356.9 1.3 224 10.5
2009-05-25 08:41:40 51°13.791 2°48.272 356.9 1.3 223 10.7
2009-05-25 08:41:44 51°13.79 2°48.27 356.9 1.3 223 10.7
2009-05-25 08:41:49 51°13.789 2°48.268 356.9 1.3 222 10.6
2009-05-25 08:41:54 51°13.787 2°48.266 356.9 1.3 223 10.7
2009-05-25 08:41:59 51°13.786 2°48.264 357.2 1.3 222 10.7
2009-05-25 08:42:04 51°13.785 2°48.262 357.2 1.3 222 10.6
2009-05-25 08:42:08 51°13.784 2°48.261 357.2 1.3 222 10.8
2009-05-25 08:42:14 51°13.782 2°48.258 357.2 1.3 223 10.6
2009-05-25 08:42:19 51°13.781 2°48.257 357.2 1.3 220 10.6
2009-05-25 08:42:24 51°13.779 2°48.255 357.3 1.3 221 10.6
2009-05-25 08:42:28 51°13.778 2°48.253 357.5 1.3 220 10.7
2009-05-25 08:42:34 51°13.776 2°48.251 357.6 1.4 222 10.7
2009-05-25 08:42:39 51°13.775 2°48.249 357.7 1.3 220 10.5
2009-05-25 08:42:44 51°13.774 2°48.247 357.8 1.4 220 10.7
2009-05-25 08:42:49 51°13.772 2°48.245 357.8 1.4 219 10.7
2009-05-25 08:42:54 51°13.771 2°48.243 357.8 1.4 222 10.6
2009-05-25 08:42:59 51°13.769 2°48.241 357.8 1.4 219 10.6
2009-05-25 08:43:04 51°13.768 2°48.239 357.9 1.4 220 10.6
2009-05-25 08:43:09 51°13.767 2°48.237 357.9 1.3 219 10.7
2009-05-25 08:43:14 51°13.765 2°48.235 358.1 1.4 219 10.6
2009-05-25 08:43:19 51°13.764 2°48.233 358.3 1.4 219 10.8
2009-05-25 08:43:24 51°13.762 2°48.232 358.6 1.4 218 10.6
2009-05-25 08:43:29 51°13.761 2°48.23 358.8 1.4 219 10.6
2009-05-25 08:43:33 51°13.759 2°48.228 359.1 1.4 218 10.7
2009-05-25 08:43:39 51°13.758 2°48.226 359.4 1.4 219 10.6
2009-05-25 08:43:44 51°13.756 2°48.224 359.7 1.4 217 10.6
2009-05-25 08:43:49 51°13.755 2°48.222 0.1 1.4 219 10.7
2009-05-25 08:43:54 51°13.753 2°48.22 0.5 1.4 218 10.6
2009-05-25 08:43:59 51°13.752 2°48.219 0.9 1.4 219 10.5
2009-05-25 08:44:04 51°13.75 2°48.217 1.3 1.3 217 10.7
2009-05-25 08:44:09 51°13.749 2°48.215 1.7 1.4 218 10.6
2009-05-25 08:44:14 51°13.747 2°48.213 2.2 1.4 217 10.5
2009-05-25 08:44:19 51°13.746 2°48.211 2.7 1.4 218 10.6
2009-05-25 08:44:24 51°13.744 2°48.209 3.2 1.4 217 10.6
2009-05-25 08:44:29 51°13.743 2°48.208 3.7 1.4 216 10.7
2009-05-25 08:44:34 51°13.741 2°48.206 4.2 1.4 216 10.6
2009-05-25 08:44:39 51°13.74 2°48.204 4.7 1.4 218 10.7
2009-05-25 08:44:44 51°13.738 2°48.202 5.2 1.4 216 10.6
2009-05-25 08:44:49 51°13.736 2°48.2 5.9 1.4 216 10.6
2009-05-25 08:44:53 51°13.735 2°48.199 6.4 1.4 217 10.6
2009-05-25 08:44:59 51°13.733 2°48.197 7 1.4 216 10.7
2009-05-25 08:45:04 51°13.732 2°48.195 7.7 1.4 216 10.7
2009-05-25 08:45:09 51°13.73 2°48.193 8.2 1.4 216 10.5
2009-05-25 08:45:14 51°13.729 2°48.192 8.8 1.4 217 10.7
2009-05-25 08:45:20 51°13.727 2°48.189 9.5 1.4 215 10.6
2009-05-25 08:45:24 51°13.726 2°48.188 10 1.4 216 10.7
2009-05-25 08:45:29 51°13.724 2°48.186 10.4 1.4 215 10.6
2009-05-25 08:45:34 51°13.722 2°48.185 10.9 1.4 216 10.7
2009-05-25 08:45:39 51°13.721 2°48.183 11.3 1.4 215 10.6
2009-05-25 08:45:44 51°13.719 2°48.181 11.8 1.4 215 10.6
2009-05-25 08:45:48 51°13.718 2°48.179 12.3 1.4 215 10.7
2009-05-25 08:45:54 51°13.716 2°48.177 12.7 1.4 215 10.5
2009-05-25 08:45:59 51°13.714 2°48.175 13.2 1.4 216 10.6
2009-05-25 08:46:04 51°13.713 2°48.173 13.6 1.4 215 10.6
2009-05-25 08:46:09 51°13.711 2°48.171 14 1.4 215 10.7
2009-05-25 08:46:14 51°13.71 2°48.17 14.3 1.5 215 10.6
2009-05-25 08:46:19 51°13.708 2°48.168 14.7 1.4 216 10.5
2009-05-25 08:46:24 51°13.706 2°48.166 15.1 1.4 216 10.7
2009-05-25 08:46:29 51°13.705 2°48.164 15.3 1.4 216 10.6
2009-05-25 08:46:34 51°13.703 2°48.162 15.7 1.4 216 10.5
2009-05-25 08:46:39 51°13.702 2°48.161 16 1.5 216 10.6
2009-05-25 08:46:44 51°13.7 2°48.159 16.3 1.4 216 10.5
2009-05-25 08:46:49 51°13.698 2°48.157 16.7 1.4 215 10.6
2009-05-25 08:46:54 51°13.697 2°48.155 16.9 1.5 217 10.6
2009-05-25 08:46:59 51°13.695 2°48.153 17.2 1.4 215 10.5
2009-05-25 08:47:04 51°13.694 2°48.151 17.5 1.4 216 10.7
2009-05-25 08:47:09 51°13.692 2°48.15 17.8 1.4 216 10.6
2009-05-25 08:47:13 51°13.691 2°48.148 18.1 1.5 215 10.4
2009-05-25 08:47:19 51°13.689 2°48.146 18.4 1.5 215 10.6
2009-05-25 08:47:24 51°13.687 2°48.144 18.7 1.4 214 10.6
2009-05-25 08:47:29 51°13.685 2°48.142 18.9 1.4 215 10.6
2009-05-25 08:47:34 51°13.684 2°48.141 19.1 1.4 214 10.5
2009-05-25 08:47:40 51°13.682 2°48.138 19.4 1.4 213 10.7
2009-05-25 08:47:44 51°13.68 2°48.137 19.7 1.4 212 10.6
2009-05-25 08:47:49 51°13.679 2°48.135 20 1.4 214 10.5
2009-05-25 08:47:54 51°13.677 2°48.134 20.3 1.4 213 10.6